Terminal Aerodrome Forecast
Issued by NWS Pittsburgh, PA

Current Version | Previous Version | Graphics & Text | Print | Product List | Glossary On
Versions: 1 2 3 4 5 6 7 8 9 10 11 12 13 14 15 16 17 18 19 20 21 22 23 24 25 26 27 28 29 30 31 32 33 34
000
FTUS41 KPBZ 010500
TAFPIT
TAF
KPIT 010520Z 0106/0212 VRB05KT P6SM OVC080
     FM010800 VRB03KT 2SM -SN OVC025
     FM011000 VRB03KT 3/4SM -SN OVC010
     FM011500 21005KT 1SM -SN OVC010
     FM020200 26006KT 3SM -SN OVC015
     FM020700 28010KT 6SM -SN OVC010=

USA.gov is the U.S. government's official web portal to all federal, state and local government web resources and services.